createdAt,value
2022-09-22T00:00:30.610Z,83.76
2022-09-22T00:01:30.734Z,84.17
2022-09-22T00:02:30.644Z,84.11
2022-09-22T00:03:30.580Z,83.59
2022-09-22T00:04:30.571Z,83.28
2022-09-22T00:05:30.573Z,83.39
2022-09-22T00:06:30.588Z,83.39
2022-09-22T00:07:30.539Z,83.70
2022-09-22T00:08:30.526Z,83.59
2022-09-22T00:09:30.523Z,83.28
2022-09-22T00:10:30.522Z,83.28
2022-09-22T00:11:30.488Z,83.39
2022-09-22T00:12:30.501Z,83.70
2022-09-22T00:13:30.470Z,83.28
2022-09-22T00:14:30.461Z,83.49
2022-09-22T00:15:30.448Z,83.70
2022-09-22T00:16:30.544Z,83.49
2022-09-22T00:17:30.420Z,83.18
2022-09-22T00:18:30.447Z,83.07
2022-09-22T00:19:30.399Z,82.50
2022-09-22T00:20:30.391Z,82.35
2022-09-22T00:21:30.378Z,82.05
2022-09-22T00:22:30.372Z,82.05
2022-09-22T00:23:30.352Z,82.46
2022-09-22T00:24:30.361Z,82.87
2022-09-22T00:25:30.330Z,82.46
2022-09-22T00:26:30.350Z,82.25
2022-09-22T00:27:30.309Z,82.87
2022-09-22T00:28:30.300Z,83.22
2022-09-22T00:29:30.349Z,83.32
2022-09-22T00:30:30.279Z,82.50
2022-09-22T00:31:30.339Z,82.29
2022-09-22T00:32:30.262Z,82.09
2022-09-22T00:33:30.241Z,81.98
2022-09-22T00:34:30.238Z,81.77
2022-09-22T00:35:30.248Z,81.67
2022-09-22T00:36:30.211Z,81.37
2022-09-22T00:37:30.193Z,81.37
2022-09-22T00:38:30.188Z,81.30
2022-09-22T00:39:30.170Z,80.99
2022-09-22T00:40:30.207Z,80.47
2022-09-22T00:41:30.169Z,80.89
2022-09-22T00:42:30.139Z,80.27
2022-09-22T00:43:30.132Z,80.37
2022-09-22T00:44:30.119Z,80.27
2022-09-22T00:45:30.100Z,80.16
2022-09-22T00:46:30.128Z,79.86
2022-09-22T00:47:30.100Z,79.44
2022-09-22T00:48:30.077Z,79.14
2022-09-22T00:49:30.060Z,79.34
2022-09-22T00:50:30.049Z,79.24
2022-09-22T00:51:30.038Z,79.24
2022-09-22T00:52:30.028Z,78.93
2022-09-22T00:53:30.037Z,78.52
2022-09-22T00:54:30.009Z,78.62
2022-09-22T00:55:29.996Z,78.93
2022-09-22T00:56:29.987Z,78.62
2022-09-22T00:57:29.969Z,78.34
2022-09-22T00:58:29.960Z,78.14
2022-09-22T00:59:29.970Z,77.83
2022-09-22T01:00:29.962Z,77.62
2022-09-22T01:01:29.977Z,77.83
2022-09-22T01:02:29.918Z,77.22
2022-09-22T01:03:30.243Z,77.42
2022-09-22T01:04:29.896Z,77.52
2022-09-22T01:05:29.897Z,77.42
2022-09-22T01:06:29.870Z,77.73
2022-09-22T01:07:29.862Z,78.14
2022-09-22T01:08:29.852Z,77.73
2022-09-22T01:09:29.837Z,77.73
2022-09-22T01:10:29.858Z,77.01
2022-09-22T01:11:29.811Z,76.80
2022-09-22T01:12:29.810Z,76.39
2022-09-22T01:13:29.789Z,76.29
2022-09-22T01:14:29.786Z,76.70
2022-09-22T01:15:29.770Z,76.49
2022-09-22T01:16:29.817Z,76.84
2022-09-22T01:17:29.751Z,76.84
2022-09-22T01:18:29.736Z,76.73
2022-09-22T01:19:29.719Z,76.84
2022-09-22T01:20:29.718Z,76.32
2022-09-22T01:21:29.698Z,76.42
2022-09-22T01:22:29.708Z,76.32
2022-09-22T01:23:29.678Z,76.01
2022-09-22T01:24:29.668Z,76.12
2022-09-22T01:25:29.649Z,76.01
2022-09-22T01:26:29.648Z,76.21
2022-09-22T01:27:29.658Z,76.01
2022-09-22T01:28:29.618Z,76.63
2022-09-22T01:29:29.608Z,76.73
2022-09-22T01:30:29.598Z,76.94
2022-09-22T01:31:29.637Z,76.94
2022-09-22T01:32:29.578Z,76.84
2022-09-22T01:33:29.578Z,77.25
2022-09-22T01:34:29.547Z,76.94
2022-09-22T01:35:29.538Z,77.04
2022-09-22T01:36:29.527Z,76.42
2022-09-22T01:37:29.518Z,76.32
2022-09-22T01:38:29.529Z,76.32
2022-09-22T01:39:29.495Z,76.12
2022-09-22T01:40:29.556Z,75.70
2022-09-22T01:41:29.468Z,76.12
2022-09-22T01:42:30.228Z,76.01
2022-09-22T01:43:29.447Z,75.70
2022-09-22T01:44:29.479Z,75.39
2022-09-22T01:45:29.427Z,75.70
2022-09-22T01:46:29.480Z,75.70
2022-09-22T01:47:29.406Z,75.70
2022-09-22T01:48:29.398Z,76.53
2022-09-22T01:49:29.405Z,75.91
2022-09-22T01:50:29.377Z,75.81
2022-09-22T01:51:29.372Z,76.12
2022-09-22T01:52:29.350Z,76.21
2022-09-22T01:53:29.338Z,76.04
2022-09-22T01:54:29.328Z,75.81
2022-09-22T01:55:29.335Z,75.95
2022-09-22T01:56:29.306Z,76.15
2022-09-22T01:57:29.295Z,76.04
2022-09-22T01:58:29.286Z,75.84
2022-09-22T01:59:29.268Z,76.04
2022-09-22T02:00:29.258Z,75.74
2022-09-22T02:01:29.385Z,76.04
2022-09-22T02:02:29.290Z,76.25
2022-09-22T02:03:29.217Z,75.95
2022-09-22T02:04:29.214Z,76.04
2022-09-22T02:05:29.196Z,75.74
2022-09-22T02:06:29.187Z,75.32
2022-09-22T02:07:29.196Z,75.22
2022-09-22T02:08:29.166Z,75.43
2022-09-22T02:09:29.147Z,75.74
2022-09-22T02:10:29.145Z,75.74
2022-09-22T02:11:29.130Z,75.74
2022-09-22T02:12:29.126Z,76.35
2022-09-22T02:13:29.125Z,76.46
2022-09-22T02:14:29.100Z,76.67
2022-09-22T02:15:29.091Z,76.87
2022-09-22T02:16:29.076Z,76.98
2022-09-22T02:17:34.377Z,76.56
2022-09-22T02:18:30.074Z,76.46
2022-09-22T02:19:29.039Z,76.15
2022-09-22T02:20:29.034Z,76.67
2022-09-22T02:21:29.014Z,76.25
2022-09-22T02:22:29.004Z,76.18
2022-09-22T02:23:28.995Z,75.46
2022-09-22T02:24:29.007Z,75.46
2022-09-22T02:25:28.969Z,75.67
2022-09-22T02:26:28.964Z,74.84
2022-09-22T02:27:28.945Z,75.15
2022-09-22T02:28:28.935Z,74.95
2022-09-22T02:29:28.926Z,75.36
2022-09-22T02:30:28.944Z,75.43
2022-09-22T02:31:28.939Z,74.95
2022-09-22T02:32:28.896Z,75.15
2022-09-22T02:33:28.875Z,74.63
2022-09-22T02:34:28.866Z,74.33
2022-09-22T02:35:28.854Z,74.60
2022-09-22T02:36:28.863Z,74.71
2022-09-22T02:37:28.835Z,74.91
2022-09-22T02:38:28.824Z,74.53
2022-09-22T02:39:28.805Z,74.74
2022-09-22T02:40:28.870Z,75.05
2022-09-22T02:41:28.804Z,74.95
2022-09-22T02:42:28.774Z,75.26
2022-09-22T02:43:28.756Z,75.36
2022-09-22T02:44:28.754Z,75.46
2022-09-22T02:45:28.734Z,75.05
2022-09-22T02:46:28.756Z,75.15
2022-09-22T02:47:28.732Z,75.67
2022-09-22T02:48:28.704Z,75.57
2022-09-22T02:49:28.685Z,75.87
2022-09-22T02:50:28.688Z,75.87
2022-09-22T02:51:28.675Z,76.18
2022-09-22T02:52:28.682Z,75.98
2022-09-22T02:53:28.643Z,75.70
2022-09-22T02:54:28.635Z,74.36
2022-09-22T02:55:28.624Z,74.98
2022-09-22T02:56:28.614Z,74.46
2022-09-22T02:57:28.595Z,73.95
2022-09-22T02:58:28.604Z,74.57
2022-09-22T02:59:28.575Z,74.46
2022-09-22T03:00:28.563Z,73.64
2022-09-22T03:01:28.604Z,73.64
2022-09-22T03:02:28.541Z,73.12
2022-09-22T03:03:28.543Z,73.02
2022-09-22T03:04:28.586Z,73.02
2022-09-22T03:05:28.504Z,72.71
2022-09-22T03:06:28.494Z,72.50
2022-09-22T03:07:28.476Z,72.81
2022-09-22T03:08:28.474Z,73.12
2022-09-22T03:09:28.483Z,72.71
2022-09-22T03:10:28.443Z,72.61
2022-09-22T03:11:28.438Z,72.50
2022-09-22T03:12:28.422Z,72.19
2022-09-22T03:13:28.404Z,72.81
2022-09-22T03:14:28.401Z,72.91
2022-09-22T03:15:28.464Z,72.50
2022-09-22T03:16:28.374Z,72.40
2022-09-22T03:17:28.364Z,72.50
2022-09-22T03:18:28.351Z,72.71
2022-09-22T03:19:28.342Z,72.33
2022-09-22T03:20:28.376Z,72.53
2022-09-22T03:21:28.335Z,72.85
2022-09-22T03:22:28.308Z,72.74
2022-09-22T03:23:28.291Z,72.53
2022-09-22T03:24:28.273Z,73.16
2022-09-22T03:25:28.271Z,72.64
2022-09-22T03:26:28.253Z,72.64
2022-09-22T03:27:28.262Z,72.64
2022-09-22T03:28:28.231Z,72.53
2022-09-22T03:29:28.222Z,72.43
2022-09-22T03:30:28.202Z,72.64
2022-09-22T03:31:28.203Z,72.74
2022-09-22T03:32:28.222Z,72.85
2022-09-22T03:33:28.175Z,72.53
2022-09-22T03:34:28.163Z,72.33
2022-09-22T03:35:28.152Z,72.12
2022-09-22T03:36:28.132Z,72.33
2022-09-22T03:37:28.132Z,72.43
2022-09-22T03:38:28.143Z,72.33
2022-09-22T03:39:28.117Z,72.53
2022-09-22T03:40:28.122Z,72.33
2022-09-22T03:41:28.083Z,72.43
2022-09-22T03:42:28.064Z,72.53
2022-09-22T03:43:28.060Z,72.43
2022-09-22T03:44:28.063Z,72.74
2022-09-22T03:45:28.034Z,72.53
2022-09-22T03:46:28.060Z,72.53
2022-09-22T03:47:28.011Z,72.88
2022-09-22T03:48:27.991Z,72.78
2022-09-22T03:49:27.992Z,72.57
2022-09-22T03:50:27.992Z,72.78
2022-09-22T03:51:27.964Z,72.47
2022-09-22T03:52:27.970Z,72.36
2022-09-22T03:53:27.938Z,72.26
2022-09-22T03:54:27.924Z,72.05
2022-09-22T03:55:27.931Z,72.16
2022-09-22T03:56:27.901Z,72.05
2022-09-22T03:57:27.891Z,71.74
2022-09-22T03:58:27.871Z,72.05
2022-09-22T03:59:27.871Z,71.84
2022-09-22T04:00:27.851Z,71.53
2022-09-22T04:01:27.895Z,71.22
2022-09-22T04:02:27.857Z,71.22
2022-09-22T04:03:27.821Z,71.43
2022-09-22T04:04:27.810Z,71.43
2022-09-22T04:05:27.800Z,71.05
2022-09-22T04:06:27.811Z,70.95
2022-09-22T04:07:27.770Z,71.84
2022-09-22T04:08:27.760Z,71.78
2022-09-22T04:09:27.750Z,71.57
2022-09-22T04:10:27.740Z,71.57
2022-09-22T04:11:27.733Z,71.98
2022-09-22T04:12:27.730Z,72.39
2022-09-22T04:13:27.700Z,72.29
2022-09-22T04:14:27.699Z,71.98
2022-09-22T04:15:27.680Z,72.29
2022-09-22T04:16:27.693Z,71.98
2022-09-22T04:17:27.660Z,71.78
2022-09-22T04:18:27.661Z,71.26
2022-09-22T04:19:27.639Z,70.64
2022-09-22T04:20:27.620Z,71.26
2022-09-22T04:21:27.609Z,70.84
2022-09-22T04:22:27.599Z,71.08
2022-09-22T04:23:27.591Z,70.47
2022-09-22T04:24:27.599Z,70.77
2022-09-22T04:25:27.572Z,70.57
2022-09-22T04:26:27.550Z,70.67
2022-09-22T04:27:27.541Z,70.36
2022-09-22T04:28:27.528Z,70.47
2022-09-22T04:29:27.545Z,70.05
2022-09-22T04:30:27.572Z,70.26
2022-09-22T04:31:27.499Z,70.05
2022-09-22T04:32:27.489Z,70.47
2022-09-22T04:33:27.487Z,70.15
2022-09-22T04:34:27.461Z,70.15
2022-09-22T04:35:27.458Z,70.47
2022-09-22T04:36:27.458Z,70.05
2022-09-22T04:37:27.432Z,69.43
2022-09-22T04:38:27.418Z,69.53
2022-09-22T04:39:27.412Z,69.22
2022-09-22T04:40:27.432Z,69.12
2022-09-22T04:41:27.408Z,68.60
2022-09-22T04:42:27.368Z,68.49
2022-09-22T04:43:27.368Z,68.49
2022-09-22T04:44:27.351Z,68.49
2022-09-22T04:45:27.339Z,67.88
2022-09-22T04:46:27.435Z,67.98
2022-09-22T04:47:27.346Z,68.40
2022-09-22T04:48:27.311Z,68.19
2022-09-22T04:49:27.302Z,68.08
2022-09-22T04:50:27.291Z,67.88
2022-09-22T04:51:27.279Z,68.08
2022-09-22T04:52:27.270Z,68.19
2022-09-22T04:53:27.283Z,67.88
2022-09-22T04:54:27.239Z,67.36
2022-09-22T04:55:27.239Z,67.77
2022-09-22T04:56:27.238Z,67.15
2022-09-22T04:57:27.217Z,67.25
2022-09-22T04:58:27.198Z,67.67
2022-09-22T04:59:27.219Z,67.77
2022-09-22T05:00:27.177Z,67.25
2022-09-22T05:01:27.206Z,67.15
2022-09-22T05:02:27.169Z,67.15
2022-09-22T05:03:27.220Z,67.36
2022-09-22T05:04:27.157Z,67.25
2022-09-22T05:05:27.127Z,67.46
2022-09-22T05:06:27.114Z,67.46
2022-09-22T05:07:27.127Z,67.77
2022-09-22T05:08:27.097Z,67.98
2022-09-22T05:09:27.088Z,68.19
2022-09-22T05:10:27.095Z,67.88
2022-09-22T05:11:27.057Z,68.40
2022-09-22T05:12:27.047Z,67.95
2022-09-22T05:13:27.050Z,68.57
2022-09-22T05:14:27.026Z,68.36
2022-09-22T05:15:27.017Z,68.60
2022-09-22T05:16:27.062Z,68.70
2022-09-22T05:17:26.987Z,68.29
2022-09-22T05:18:26.977Z,68.40
2022-09-22T05:19:26.976Z,68.60
2022-09-22T05:20:26.956Z,68.57
2022-09-22T05:21:26.947Z,69.01
2022-09-22T05:22:26.959Z,69.53
2022-09-22T05:23:26.928Z,69.53
2022-09-22T05:24:26.908Z,69.43
2022-09-22T05:25:26.896Z,69.43
2022-09-22T05:26:26.886Z,69.43
2022-09-22T05:27:26.875Z,69.32
2022-09-22T05:28:26.876Z,69.22
2022-09-22T05:29:27.905Z,69.32
2022-09-22T05:30:26.848Z,69.22
2022-09-22T05:31:26.834Z,69.64
2022-09-22T05:32:26.815Z,69.19
2022-09-22T05:33:26.826Z,69.50
2022-09-22T05:34:26.795Z,69.71
2022-09-22T05:35:26.787Z,69.71
2022-09-22T05:36:26.766Z,69.71
2022-09-22T05:37:26.765Z,70.12
2022-09-22T05:38:26.747Z,70.12
2022-09-22T05:39:27.063Z,69.81
2022-09-22T05:40:26.788Z,69.81
2022-09-22T05:41:26.719Z,70.12
2022-09-22T05:42:26.695Z,70.32
2022-09-22T05:43:26.694Z,70.64
2022-09-22T05:44:26.673Z,70.53
2022-09-22T05:45:26.723Z,70.84
2022-09-22T05:46:26.647Z,70.53
2022-09-22T05:47:26.646Z,71.15
2022-09-22T05:48:31.010Z,71.22
2022-09-22T05:49:26.615Z,71.33
2022-09-22T05:50:26.624Z,71.43
2022-09-22T05:51:26.594Z,71.43
2022-09-22T05:52:26.589Z,71.74
2022-09-22T05:53:26.577Z,71.95
2022-09-22T05:54:26.554Z,72.05
2022-09-22T05:55:26.544Z,72.26
2022-09-22T05:56:26.570Z,72.36
2022-09-22T05:57:26.522Z,72.67
2022-09-22T05:58:26.514Z,72.78
2022-09-22T05:59:26.508Z,72.88
2022-09-22T06:00:26.484Z,73.05
2022-09-22T06:01:26.588Z,72.95
2022-09-22T06:02:26.868Z,73.16
2022-09-22T06:03:26.455Z,73.47
2022-09-22T06:04:26.434Z,73.57
2022-09-22T06:05:26.426Z,73.57
2022-09-22T06:06:26.415Z,73.88
2022-09-22T06:07:26.433Z,74.40
2022-09-22T06:08:26.395Z,74.15
2022-09-22T06:09:26.383Z,74.15
2022-09-22T06:10:26.415Z,74.67
2022-09-22T06:11:26.366Z,75.19
2022-09-22T06:12:26.345Z,74.98
2022-09-22T06:13:26.362Z,75.81
2022-09-22T06:14:26.323Z,76.12
2022-09-22T06:15:26.313Z,76.29
2022-09-22T06:16:26.304Z,76.90
2022-09-22T06:17:26.291Z,77.53
2022-09-22T06:18:26.324Z,77.94
2022-09-22T06:19:26.262Z,78.31
2022-09-22T06:20:26.350Z,78.63
2022-09-22T06:21:26.245Z,79.35
2022-09-22T06:22:26.232Z,80.28
2022-09-22T06:23:26.224Z,81.17
2022-09-22T06:24:26.222Z,81.54
2022-09-22T06:25:26.205Z,83.12
2022-09-22T06:26:26.182Z,91.53
2022-09-22T06:27:26.182Z,98.55
2022-09-22T06:28:26.165Z,99.99
2022-09-22T06:29:26.172Z,99.99
2022-09-22T06:30:26.162Z,99.82
2022-09-22T06:31:26.186Z,94.26
2022-09-22T06:32:26.122Z,91.20
2022-09-22T06:33:26.111Z,89.53
2022-09-22T06:34:26.094Z,85.96
2022-09-22T06:35:26.114Z,83.87
2022-09-22T06:36:26.063Z,83.57
2022-09-22T06:37:26.073Z,82.49
2022-09-22T06:38:26.047Z,81.70
2022-09-22T06:39:26.042Z,80.13
2022-09-22T06:40:26.153Z,77.00
2022-09-22T06:41:26.036Z,73.84
2022-09-22T06:42:26.004Z,73.16
2022-09-22T06:43:25.992Z,74.96
2022-09-22T06:44:25.996Z,73.33
2022-09-22T06:45:26.076Z,74.25
2022-09-22T06:46:25.953Z,72.78
2022-09-22T06:47:25.961Z,71.23
2022-09-22T06:48:25.933Z,71.09
2022-09-22T06:49:25.923Z,70.45
2022-09-22T06:50:28.024Z,71.23
2022-09-22T06:51:25.902Z,70.32
2022-09-22T06:52:25.913Z,66.80
2022-09-22T06:53:27.315Z,65.45
2022-09-22T06:54:25.911Z,63.43
2022-09-22T06:55:25.854Z,63.89
2022-09-22T06:56:25.857Z,65.04
2022-09-22T06:57:25.833Z,65.21
2022-09-22T06:58:25.837Z,65.45
2022-09-22T06:59:25.824Z,65.95
2022-09-22T07:00:25.793Z,66.63
2022-09-22T07:01:25.879Z,65.82
2022-09-22T07:02:25.809Z,65.59
2022-09-22T07:03:25.785Z,64.04
2022-09-22T07:04:25.745Z,64.17
2022-09-22T07:05:25.743Z,64.50
2022-09-22T07:06:25.724Z,65.92
2022-09-22T07:07:25.714Z,65.25
2022-09-22T07:08:25.695Z,63.40
2022-09-22T07:09:25.718Z,62.66
2022-09-22T07:10:25.676Z,62.96
2022-09-22T07:11:25.665Z,62.69
2022-09-22T07:12:25.659Z,64.41
2022-09-22T07:13:25.651Z,62.79
2022-09-22T07:14:25.648Z,63.09
2022-09-22T07:15:25.641Z,63.09
2022-09-22T07:16:25.717Z,63.40
2022-09-22T07:17:25.597Z,63.27
2022-09-22T07:18:25.657Z,62.19
2022-09-22T07:19:25.577Z,61.92
2022-09-22T07:20:25.587Z,61.52
2022-09-22T07:21:25.557Z,61.90
2022-09-22T07:22:25.546Z,61.25
2022-09-22T07:23:25.546Z,60.19
2022-09-22T07:24:25.529Z,59.45
2022-09-22T07:25:25.510Z,58.32
2022-09-22T07:26:25.520Z,57.91
2022-09-22T07:27:25.480Z,57.58
2022-09-22T07:28:25.479Z,58.04
2022-09-22T07:29:25.468Z,59.00
2022-09-22T07:30:25.457Z,59.81
2022-09-22T07:31:28.794Z,60.14
2022-09-22T07:32:25.429Z,60.85
2022-09-22T07:33:25.427Z,59.86
2022-09-22T07:34:25.410Z,58.22
2022-09-22T07:35:25.401Z,58.75
2022-09-22T07:36:25.388Z,59.18
2022-09-22T07:37:25.400Z,59.78
2022-09-22T07:38:25.360Z,59.56
2022-09-22T07:39:25.360Z,58.49
2022-09-22T07:40:25.386Z,57.48
2022-09-22T07:41:25.332Z,58.01
2022-09-22T07:42:25.390Z,58.09
2022-09-22T07:43:32.353Z,57.89
2022-09-22T07:44:25.297Z,56.85
2022-09-22T07:45:25.276Z,56.62
2022-09-22T07:46:25.321Z,56.52
2022-09-22T07:47:25.264Z,56.02
2022-09-22T07:48:25.274Z,56.55
2022-09-22T07:49:25.234Z,57.76
2022-09-22T07:50:25.239Z,57.32
2022-09-22T07:51:25.215Z,56.65
2022-09-22T07:52:25.204Z,58.19
2022-09-22T07:53:25.217Z,58.82
2022-09-22T07:54:25.184Z,59.56
2022-09-22T07:55:25.291Z,60.14
2022-09-22T07:56:25.156Z,62.43
2022-09-22T07:57:25.147Z,63.67
2022-09-22T07:58:25.143Z,64.21
2022-09-22T07:59:25.146Z,64.41
2022-09-22T08:00:25.180Z,64.04
2022-09-22T08:01:25.097Z,63.21
2022-09-22T08:02:25.196Z,63.28
2022-09-22T08:03:25.077Z,61.10
2022-09-22T08:04:25.068Z,60.77
2022-09-22T08:05:25.068Z,59.60
2022-09-22T08:06:25.047Z,58.92
2022-09-22T08:07:25.037Z,59.70
2022-09-22T08:08:25.028Z,58.74
2022-09-22T08:09:25.009Z,57.43
2022-09-22T08:10:25.028Z,56.90
2022-09-22T08:11:24.990Z,57.32
2022-09-22T08:12:24.979Z,57.76
2022-09-22T08:13:24.968Z,60.09
2022-09-22T08:14:24.968Z,62.07
2022-09-22T08:15:27.385Z,61.96
2022-09-22T08:16:24.988Z,62.34
2022-09-22T08:17:24.919Z,61.40
2022-09-22T08:18:24.911Z,59.73
2022-09-22T08:19:24.902Z,59.50
2022-09-22T08:20:24.889Z,58.54
2022-09-22T08:21:24.871Z,57.17
2022-09-22T08:22:24.913Z,55.31
2022-09-22T08:23:24.849Z,54.35
2022-09-22T08:24:24.841Z,53.70
2022-09-22T08:25:24.829Z,52.92
2022-09-22T08:26:24.853Z,53.32
2022-09-22T08:27:24.812Z,53.09
2022-09-22T08:28:24.824Z,52.87
2022-09-22T08:29:24.838Z,52.82
2022-09-22T08:30:24.773Z,51.92
2022-09-22T08:31:24.851Z,51.14
2022-09-22T08:32:24.753Z,51.69
2022-09-22T08:33:24.744Z,53.17
2022-09-22T08:34:24.744Z,53.40
2022-09-22T08:35:24.714Z,54.33
2022-09-22T08:36:24.705Z,55.69
2022-09-22T08:37:24.694Z,55.69
2022-09-22T08:38:24.685Z,55.63
2022-09-22T08:39:24.686Z,54.58
2022-09-22T08:40:24.724Z,53.67
2022-09-22T08:41:24.653Z,53.65
2022-09-22T08:42:24.644Z,53.62
2022-09-22T08:43:24.640Z,52.62
2022-09-22T08:44:24.618Z,53.32
2022-09-22T08:45:26.966Z,52.80
2022-09-22T08:46:24.643Z,51.56
2022-09-22T08:47:24.578Z,51.34
2022-09-22T08:48:24.577Z,50.84
2022-09-22T08:49:24.560Z,51.49
2022-09-22T08:50:24.578Z,53.09
2022-09-22T08:51:24.630Z,52.57
2022-09-22T08:52:24.528Z,51.29
2022-09-22T08:53:24.509Z,50.99
2022-09-22T08:54:24.508Z,50.86
2022-09-22T08:55:24.490Z,51.06
2022-09-22T08:56:24.549Z,50.96
2022-09-22T08:57:24.470Z,50.94
2022-09-22T08:58:24.459Z,50.21
2022-09-22T08:59:24.491Z,50.31
2022-09-22T09:00:24.509Z,49.79
2022-09-22T09:01:24.475Z,49.66
2022-09-22T09:02:24.511Z,48.64
2022-09-22T09:03:24.401Z,49.52
2022-09-22T09:04:24.410Z,48.60
2022-09-22T09:05:24.381Z,47.07
2022-09-22T09:06:24.373Z,46.65
2022-09-22T09:07:24.363Z,46.13
2022-09-22T09:08:24.372Z,45.90
2022-09-22T09:09:24.334Z,45.63
2022-09-22T09:10:24.370Z,46.05
2022-09-22T09:12:24.304Z,46.25
2022-09-22T09:13:24.284Z,46.97
2022-09-22T09:14:24.294Z,47.05
2022-09-22T09:15:24.266Z,47.60
2022-09-22T09:16:24.288Z,47.81
2022-09-22T09:17:24.243Z,49.14
2022-09-22T09:18:24.245Z,49.44
2022-09-22T09:19:24.244Z,49.04
2022-09-22T09:20:24.296Z,49.57
2022-09-22T09:21:24.198Z,49.99
2022-09-22T09:22:24.188Z,50.09
2022-09-22T09:23:24.695Z,51.12
2022-09-22T09:25:27.319Z,52.72
2022-09-22T09:26:24.169Z,52.64
2022-09-22T09:27:24.128Z,53.42
2022-09-22T09:28:27.750Z,54.20
2022-09-22T09:29:24.194Z,56.40
2022-09-22T09:30:24.133Z,57.45
2022-09-22T09:31:24.136Z,58.19
2022-09-22T09:32:24.079Z,59.22
2022-09-22T09:33:24.059Z,60.26
2022-09-22T09:34:24.054Z,59.76
2022-09-22T09:35:24.145Z,59.18
2022-09-22T09:36:24.049Z,60.29
2022-09-22T09:37:24.017Z,60.93
2022-09-22T09:38:24.011Z,62.14
2022-09-22T09:39:23.991Z,61.87
2022-09-22T09:40:24.107Z,62.07
2022-09-22T09:41:23.979Z,62.27
2022-09-22T09:42:24.039Z,61.76
2022-09-22T09:43:23.952Z,61.56
2022-09-22T09:44:23.941Z,61.87
2022-09-22T09:45:23.932Z,61.13
2022-09-22T09:46:23.966Z,59.96
2022-09-22T09:47:23.901Z,58.04
2022-09-22T09:48:23.930Z,58.12
2022-09-22T09:49:23.880Z,59.30
2022-09-22T09:50:23.871Z,57.28
2022-09-22T09:51:23.859Z,58.19
2022-09-22T09:52:23.851Z,57.68
2022-09-22T09:53:23.832Z,57.68
2022-09-22T09:54:23.843Z,57.98
2022-09-22T09:55:26.643Z,58.72
2022-09-22T09:56:23.802Z,59.12
2022-09-22T09:57:28.011Z,59.63
2022-09-22T09:58:23.772Z,59.83
2022-09-22T09:59:23.783Z,59.63
2022-09-22T10:00:23.754Z,58.22
2022-09-22T10:01:23.754Z,58.32
2022-09-22T10:02:23.732Z,57.31
2022-09-22T10:03:23.752Z,57.81
2022-09-22T10:04:23.702Z,57.61
2022-09-22T10:05:23.712Z,58.12
2022-09-22T10:06:23.681Z,58.12
2022-09-22T10:07:23.721Z,57.91
2022-09-22T10:08:23.678Z,58.29
2022-09-22T10:09:23.654Z,58.42
2022-09-22T10:10:23.655Z,59.02
2022-09-22T10:11:23.628Z,58.22
2022-09-22T10:12:23.614Z,58.22
2022-09-22T10:13:23.603Z,59.22
2022-09-22T10:14:23.585Z,57.89
2022-09-22T10:15:23.581Z,57.45
2022-09-22T10:16:23.624Z,57.15
2022-09-22T10:17:23.555Z,56.77
2022-09-22T10:18:23.549Z,57.78
2022-09-22T10:19:23.534Z,55.19
2022-09-22T10:20:23.515Z,55.69
2022-09-22T10:21:23.515Z,54.71
2022-09-22T10:22:23.515Z,52.29
2022-09-22T10:23:23.494Z,54.41
2022-09-22T10:24:23.475Z,55.62
2022-09-22T10:25:23.466Z,56.12
2022-09-22T10:26:23.454Z,55.49
2022-09-22T10:27:23.495Z,54.56
2022-09-22T10:28:23.426Z,53.67
2022-09-22T10:29:23.426Z,54.05
2022-09-22T10:30:23.408Z,54.46
2022-09-22T10:31:23.444Z,52.54
2022-09-22T10:32:23.386Z,52.42
2022-09-22T10:33:23.396Z,52.31
2022-09-22T10:34:23.368Z,52.42
2022-09-22T10:35:23.358Z,52.11
2022-09-22T10:36:23.345Z,52.22
2022-09-22T10:37:23.326Z,52.72
2022-09-22T10:38:23.357Z,53.09
2022-09-22T10:39:23.318Z,54.00
2022-09-22T10:40:23.346Z,55.01
2022-09-22T10:41:23.286Z,54.61
2022-09-22T10:42:23.276Z,53.09
2022-09-22T10:43:23.266Z,53.52
2022-09-22T10:44:40.115Z,54.16
2022-09-22T10:45:24.247Z,54.89
2022-09-22T10:46:23.267Z,55.52
2022-09-22T10:47:26.960Z,56.12
2022-09-22T10:48:23.202Z,52.36
2022-09-22T10:49:23.196Z,51.15
2022-09-22T10:50:23.198Z,52.16
2022-09-22T10:51:23.169Z,52.87
2022-09-22T10:52:23.156Z,52.24
2022-09-22T10:53:23.148Z,52.74
2022-09-22T10:54:23.130Z,52.94
2022-09-22T10:55:23.127Z,52.64
2022-09-22T10:56:23.128Z,53.25
2022-09-22T10:57:23.099Z,52.24
2022-09-22T10:58:23.086Z,52.74
2022-09-22T10:59:23.070Z,52.42
2022-09-22T11:00:23.060Z,52.22
2022-09-22T11:01:23.064Z,52.11
2022-09-22T11:02:23.059Z,52.44
2022-09-22T11:03:23.029Z,54.05
2022-09-22T11:04:23.045Z,53.52
2022-09-22T11:05:23.009Z,53.22
2022-09-22T11:06:22.992Z,53.63
2022-09-22T11:07:22.980Z,53.32
2022-09-22T11:08:22.991Z,53.12
2022-09-22T11:09:22.960Z,53.02
2022-09-22T11:10:22.943Z,52.72
2022-09-22T11:11:22.931Z,51.31
2022-09-22T11:12:22.920Z,51.51
2022-09-22T11:13:22.912Z,51.71
2022-09-22T11:14:22.919Z,51.40
2022-09-22T11:15:22.929Z,52.11
2022-09-22T11:16:22.871Z,52.92
2022-09-22T11:17:22.861Z,52.62
2022-09-22T11:18:22.853Z,51.40
2022-09-22T11:19:22.862Z,51.59
2022-09-22T11:20:22.832Z,52.42
2022-09-22T11:21:22.821Z,51.91
2022-09-22T11:22:22.802Z,51.73
2022-09-22T11:23:22.793Z,51.84
2022-09-22T11:24:22.782Z,52.04
2022-09-22T11:25:22.803Z,53.65
2022-09-22T11:26:22.762Z,52.64
2022-09-22T11:27:22.752Z,53.34
2022-09-22T11:28:22.733Z,53.22
2022-09-22T11:29:22.733Z,51.84
2022-09-22T11:30:22.843Z,51.64
2022-09-22T11:31:22.753Z,52.24
2022-09-22T11:32:22.693Z,51.33
2022-09-22T11:33:22.683Z,51.23
2022-09-22T11:34:22.703Z,50.82
2022-09-22T11:35:22.663Z,51.03
2022-09-22T11:36:22.653Z,51.84
2022-09-22T11:37:22.654Z,52.64
2022-09-22T11:38:22.624Z,52.92
2022-09-22T11:39:22.617Z,53.92
2022-09-22T11:40:22.665Z,52.49
2022-09-22T11:41:22.594Z,52.29
2022-09-22T11:42:22.604Z,49.95
2022-09-22T11:43:22.574Z,49.27
2022-09-22T11:44:22.565Z,49.67
2022-09-22T11:45:22.595Z,49.77
2022-09-22T11:46:22.593Z,50.48
2022-09-22T11:47:22.545Z,49.87
2022-09-22T11:48:22.526Z,50.60
2022-09-22T11:49:22.505Z,51.99
2022-09-22T11:50:22.496Z,52.89
2022-09-22T11:51:22.486Z,51.26
2022-09-22T11:52:22.474Z,51.76
2022-09-22T11:53:22.485Z,51.16
2022-09-22T11:54:22.464Z,51.73
2022-09-22T11:55:22.438Z,51.64
2022-09-22T11:56:22.425Z,52.44
2022-09-22T11:57:22.416Z,51.03
2022-09-22T11:58:22.404Z,51.34
2022-09-22T11:59:22.415Z,50.65
2022-09-22T12:00:22.377Z,51.76
2022-09-22T12:01:22.367Z,51.08
2022-09-22T12:02:22.418Z,52.39
2022-09-22T12:03:22.412Z,52.80
2022-09-22T12:04:22.336Z,53.40
2022-09-22T12:05:22.345Z,52.37
2022-09-22T12:06:22.316Z,52.77
2022-09-22T12:07:22.297Z,51.43
2022-09-22T12:08:22.287Z,51.14
2022-09-22T12:09:22.279Z,52.04
2022-09-22T12:10:22.266Z,51.93
2022-09-22T12:11:22.268Z,51.31
2022-09-22T12:12:22.255Z,51.11
2022-09-22T12:13:22.228Z,51.21
2022-09-22T12:14:22.218Z,51.01
2022-09-22T12:15:22.218Z,50.91
2022-09-22T12:16:22.216Z,51.31
2022-09-22T12:17:23.640Z,51.29
2022-09-22T12:18:22.168Z,50.15
2022-09-22T12:19:22.159Z,49.65
2022-09-22T12:20:22.148Z,49.35
2022-09-22T12:21:22.140Z,49.95
2022-09-22T12:22:22.137Z,50.26
2022-09-22T12:23:22.109Z,49.95
2022-09-22T12:24:22.099Z,50.23
2022-09-22T12:25:37.705Z,50.13
2022-09-22T12:26:23.078Z,49.80
2022-09-22T12:27:22.089Z,49.71
2022-09-22T12:28:22.050Z,49.40
2022-09-22T12:29:22.048Z,48.70
2022-09-22T12:30:22.214Z,49.51
2022-09-22T12:31:22.112Z,48.70
2022-09-22T12:32:22.004Z,48.90
2022-09-22T12:33:22.033Z,49.73
2022-09-22T12:34:21.982Z,49.51
2022-09-22T12:35:21.979Z,48.40
2022-09-22T12:36:21.964Z,49.33
2022-09-22T12:37:21.951Z,49.13
2022-09-22T12:38:21.943Z,49.43
2022-09-22T12:39:21.950Z,48.32
2022-09-22T12:40:21.946Z,49.53
2022-09-22T12:41:21.968Z,49.63
2022-09-22T12:42:21.891Z,48.90
2022-09-22T12:43:21.884Z,49.01
2022-09-22T12:44:21.866Z,49.10
2022-09-22T12:45:21.890Z,48.50
2022-09-22T12:46:21.888Z,49.21
2022-09-22T12:47:21.842Z,49.60
2022-09-22T12:48:21.823Z,49.08
2022-09-22T12:49:21.813Z,48.98
2022-09-22T12:50:21.821Z,48.58
2022-09-22T12:51:21.812Z,48.18
2022-09-22T12:52:21.859Z,48.08
2022-09-22T12:53:21.790Z,48.90
2022-09-22T12:54:21.774Z,49.33